sensor_id;sensor_type;location;lat;lon;timestamp;P1;durP1;ratioP1;P2;durP2;ratioP2
18174;SDS011;9212;50.894;16.714;2022-10-15T00:01:10;8.10;;;5.33;;
18174;SDS011;9212;50.894;16.714;2022-10-15T00:03:38;13.20;;;5.77;;
18174;SDS011;9212;50.894;16.714;2022-10-15T00:06:07;9.60;;;5.77;;
18174;SDS011;9212;50.894;16.714;2022-10-15T00:08:36;14.90;;;5.60;;
18174;SDS011;9212;50.894;16.714;2022-10-15T00:11:05;8.43;;;5.37;;
18174;SDS011;9212;50.894;16.714;2022-10-15T00:13:33;6.60;;;4.57;;
18174;SDS011;9212;50.894;16.714;2022-10-15T00:16:00;9.93;;;5.07;;
18174;SDS011;9212;50.894;16.714;2022-10-15T00:18:27;8.10;;;5.07;;
18174;SDS011;9212;50.894;16.714;2022-10-15T00:20:55;8.03;;;4.73;;
18174;SDS011;9212;50.894;16.714;2022-10-15T00:23:22;9.13;;;4.67;;
18174;SDS011;9212;50.894;16.714;2022-10-15T00:25:58;6.17;;;4.17;;
18174;SDS011;9212;50.894;16.714;2022-10-15T00:28:26;8.07;;;4.50;;
18174;SDS011;9212;50.894;16.714;2022-10-15T00:30:58;7.23;;;4.60;;
18174;SDS011;9212;50.894;16.714;2022-10-15T00:33:25;8.93;;;4.27;;
18174;SDS011;9212;50.894;16.714;2022-10-15T00:36:00;6.53;;;4.03;;
18174;SDS011;9212;50.894;16.714;2022-10-15T00:38:28;12.57;;;4.60;;
18174;SDS011;9212;50.894;16.714;2022-10-15T00:40:57;7.20;;;4.50;;
18174;SDS011;9212;50.894;16.714;2022-10-15T00:43:41;6.40;;;3.70;;
18174;SDS011;9212;50.894;16.714;2022-10-15T00:46:14;8.07;;;4.47;;
18174;SDS011;9212;50.894;16.714;2022-10-15T00:48:48;7.43;;;4.40;;
18174;SDS011;9212;50.894;16.714;2022-10-15T00:51:18;6.73;;;4.83;;
18174;SDS011;9212;50.894;16.714;2022-10-15T00:53:47;11.60;;;4.60;;
18174;SDS011;9212;50.894;16.714;2022-10-15T00:56:16;8.00;;;4.37;;
18174;SDS011;9212;50.894;16.714;2022-10-15T00:58:45;6.87;;;4.13;;
18174;SDS011;9212;50.894;16.714;2022-10-15T01:01:14;6.70;;;4.20;;
18174;SDS011;9212;50.894;16.714;2022-10-15T01:03:41;8.53;;;5.20;;
18174;SDS011;9212;50.894;16.714;2022-10-15T01:06:08;8.83;;;5.20;;
18174;SDS011;9212;50.894;16.714;2022-10-15T01:08:35;9.13;;;4.97;;
18174;SDS011;9212;50.894;16.714;2022-10-15T01:11:06;12.00;;;5.27;;
18174;SDS011;9212;50.894;16.714;2022-10-15T01:13:45;12.73;;;5.33;;
18174;SDS011;9212;50.894;16.714;2022-10-15T01:16:23;13.37;;;6.43;;
18174;SDS011;9212;50.894;16.714;2022-10-15T01:18:58;9.70;;;6.13;;
18174;SDS011;9212;50.894;16.714;2022-10-15T01:21:30;10.93;;;5.93;;
18174;SDS011;9212;50.894;16.714;2022-10-15T01:24:28;10.83;;;5.77;;
18174;SDS011;9212;50.894;16.714;2022-10-15T01:27:27;14.90;;;7.00;;
18174;SDS011;9212;50.894;16.714;2022-10-15T01:30:04;14.43;;;7.73;;
18174;SDS011;9212;50.894;16.714;2022-10-15T01:32:52;13.47;;;8.00;;
18174;SDS011;9212;50.894;16.714;2022-10-15T01:35:29;14.67;;;7.80;;
18174;SDS011;9212;50.894;16.714;2022-10-15T01:38:05;15.53;;;8.20;;
18174;SDS011;9212;50.894;16.714;2022-10-15T01:40:39;15.03;;;7.70;;
18174;SDS011;9212;50.894;16.714;2022-10-15T01:43:12;16.40;;;8.10;;
18174;SDS011;9212;50.894;16.714;2022-10-15T01:45:43;15.87;;;8.53;;
18174;SDS011;9212;50.894;16.714;2022-10-15T01:48:17;13.57;;;7.50;;
18174;SDS011;9212;50.894;16.714;2022-10-15T01:50:48;16.27;;;8.20;;
18174;SDS011;9212;50.894;16.714;2022-10-15T01:53:20;17.70;;;7.80;;
18174;SDS011;9212;50.894;16.714;2022-10-15T01:55:50;17.17;;;8.40;;
18174;SDS011;9212;50.894;16.714;2022-10-15T01:58:21;12.93;;;7.30;;
18174;SDS011;9212;50.894;16.714;2022-10-15T02:00:49;13.33;;;7.67;;
18174;SDS011;9212;50.894;16.714;2022-10-15T02:03:18;15.23;;;7.97;;
18174;SDS011;9212;50.894;16.714;2022-10-15T02:05:46;11.33;;;6.60;;
18174;SDS011;9212;50.894;16.714;2022-10-15T02:08:19;21.00;;;7.77;;
18174;SDS011;9212;50.894;16.714;2022-10-15T02:10:54;13.27;;;7.63;;
18174;SDS011;9212;50.894;16.714;2022-10-15T02:13:29;12.00;;;6.30;;
18174;SDS011;9212;50.894;16.714;2022-10-15T02:16:05;13.00;;;6.50;;
18174;SDS011;9212;50.894;16.714;2022-10-15T02:18:40;17.00;;;7.93;;
18174;SDS011;9212;50.894;16.714;2022-10-15T02:21:13;13.77;;;7.43;;
18174;SDS011;9212;50.894;16.714;2022-10-15T02:23:45;17.03;;;8.20;;
18174;SDS011;9212;50.894;16.714;2022-10-15T02:26:18;16.90;;;8.60;;
18174;SDS011;9212;50.894;16.714;2022-10-15T02:28:50;12.33;;;6.53;;
18174;SDS011;9212;50.894;16.714;2022-10-15T02:31:21;14.00;;;7.83;;
18174;SDS011;9212;50.894;16.714;2022-10-15T02:33:52;15.57;;;7.53;;
18174;SDS011;9212;50.894;16.714;2022-10-15T02:36:23;16.40;;;8.27;;
18174;SDS011;9212;50.894;16.714;2022-10-15T02:38:51;13.07;;;7.10;;
18174;SDS011;9212;50.894;16.714;2022-10-15T02:41:22;14.73;;;7.87;;
18174;SDS011;9212;50.894;16.714;2022-10-15T02:43:49;16.27;;;8.37;;
18174;SDS011;9212;50.894;16.714;2022-10-15T02:46:16;13.37;;;7.17;;
18174;SDS011;9212;50.894;16.714;2022-10-15T02:48:45;16.27;;;8.37;;
18174;SDS011;9212;50.894;16.714;2022-10-15T02:51:13;12.63;;;7.10;;
18174;SDS011;9212;50.894;16.714;2022-10-15T02:53:40;13.67;;;7.53;;
18174;SDS011;9212;50.894;16.714;2022-10-15T02:56:08;10.40;;;6.37;;
18174;SDS011;9212;50.894;16.714;2022-10-15T02:58:35;11.47;;;6.07;;
18174;SDS011;9212;50.894;16.714;2022-10-15T03:01:02;12.40;;;6.87;;
18174;SDS011;9212;50.894;16.714;2022-10-15T03:03:29;12.00;;;6.70;;
18174;SDS011;9212;50.894;16.714;2022-10-15T03:05:56;10.67;;;5.70;;
18174;SDS011;9212;50.894;16.714;2022-10-15T03:08:25;13.10;;;6.70;;
18174;SDS011;9212;50.894;16.714;2022-10-15T03:10:52;11.37;;;6.63;;
18174;SDS011;9212;50.894;16.714;2022-10-15T03:13:19;14.97;;;7.07;;
18174;SDS011;9212;50.894;16.714;2022-10-15T03:15:46;13.30;;;6.83;;
18174;SDS011;9212;50.894;16.714;2022-10-15T03:18:13;10.67;;;6.73;;
18174;SDS011;9212;50.894;16.714;2022-10-15T03:20:40;11.97;;;7.37;;
18174;SDS011;9212;50.894;16.714;2022-10-15T03:23:07;16.30;;;7.53;;
18174;SDS011;9212;50.894;16.714;2022-10-15T03:25:36;13.17;;;6.70;;
18174;SDS011;9212;50.894;16.714;2022-10-15T03:28:03;13.83;;;7.10;;
18174;SDS011;9212;50.894;16.714;2022-10-15T03:30:30;16.97;;;8.67;;
18174;SDS011;9212;50.894;16.714;2022-10-15T03:32:57;14.37;;;7.53;;
18174;SDS011;9212;50.894;16.714;2022-10-15T03:35:25;15.13;;;7.67;;
18174;SDS011;9212;50.894;16.714;2022-10-15T03:37:52;12.03;;;6.83;;
18174;SDS011;9212;50.894;16.714;2022-10-15T03:40:19;15.87;;;6.80;;
18174;SDS011;9212;50.894;16.714;2022-10-15T03:42:50;11.53;;;6.27;;
18174;SDS011;9212;50.894;16.714;2022-10-15T03:45:17;11.23;;;7.00;;
18174;SDS011;9212;50.894;16.714;2022-10-15T03:47:44;8.67;;;5.37;;
18174;SDS011;9212;50.894;16.714;2022-10-15T03:50:11;11.50;;;5.87;;
18174;SDS011;9212;50.894;16.714;2022-10-15T03:52:39;12.13;;;7.27;;
18174;SDS011;9212;50.894;16.714;2022-10-15T03:55:06;20.13;;;10.27;;
18174;SDS011;9212;50.894;16.714;2022-10-15T03:57:34;13.10;;;7.40;;
18174;SDS011;9212;50.894;16.714;2022-10-15T04:00:04;15.40;;;8.00;;
18174;SDS011;9212;50.894;16.714;2022-10-15T04:02:32;13.90;;;8.53;;
18174;SDS011;9212;50.894;16.714;2022-10-15T04:05:00;13.47;;;7.47;;
18174;SDS011;9212;50.894;16.714;2022-10-15T04:07:27;13.03;;;6.50;;
18174;SDS011;9212;50.894;16.714;2022-10-15T04:09:54;9.67;;;6.13;;
18174;SDS011;9212;50.894;16.714;2022-10-15T04:12:21;18.97;;;9.87;;
18174;SDS011;9212;50.894;16.714;2022-10-15T04:14:49;20.90;;;11.23;;
18174;SDS011;9212;50.894;16.714;2022-10-15T04:17:17;23.20;;;11.73;;
18174;SDS011;9212;50.894;16.714;2022-10-15T04:19:44;22.13;;;10.93;;
18174;SDS011;9212;50.894;16.714;2022-10-15T04:22:12;24.90;;;12.70;;
18174;SDS011;9212;50.894;16.714;2022-10-15T04:24:39;31.13;;;12.77;;
18174;SDS011;9212;50.894;16.714;2022-10-15T04:27:06;25.93;;;13.03;;
18174;SDS011;9212;50.894;16.714;2022-10-15T04:29:34;28.57;;;12.80;;
18174;SDS011;9212;50.894;16.714;2022-10-15T04:32:01;26.53;;;12.87;;
18174;SDS011;9212;50.894;16.714;2022-10-15T04:34:29;24.87;;;12.83;;
18174;SDS011;9212;50.894;16.714;2022-10-15T04:36:56;23.37;;;12.10;;
18174;SDS011;9212;50.894;16.714;2022-10-15T04:39:24;25.40;;;11.60;;
18174;SDS011;9212;50.894;16.714;2022-10-15T04:41:51;22.30;;;11.27;;
18174;SDS011;9212;50.894;16.714;2022-10-15T04:44:18;33.27;;;12.97;;
18174;SDS011;9212;50.894;16.714;2022-10-15T04:46:46;26.57;;;12.13;;
18174;SDS011;9212;50.894;16.714;2022-10-15T04:49:13;24.83;;;12.20;;
18174;SDS011;9212;50.894;16.714;2022-10-15T04:51:42;29.47;;;12.83;;
18174;SDS011;9212;50.894;16.714;2022-10-15T04:54:09;24.67;;;12.40;;
18174;SDS011;9212;50.894;16.714;2022-10-15T04:56:37;25.27;;;11.60;;
18174;SDS011;9212;50.894;16.714;2022-10-15T04:59:05;23.77;;;11.73;;
18174;SDS011;9212;50.894;16.714;2022-10-15T05:01:33;26.97;;;11.47;;
18174;SDS011;9212;50.894;16.714;2022-10-15T05:04:00;24.30;;;11.50;;
18174;SDS011;9212;50.894;16.714;2022-10-15T05:06:27;30.30;;;13.23;;
18174;SDS011;9212;50.894;16.714;2022-10-15T05:08:56;32.13;;;12.83;;
18174;SDS011;9212;50.894;16.714;2022-10-15T05:11:24;27.80;;;12.43;;
18174;SDS011;9212;50.894;16.714;2022-10-15T05:13:53;23.60;;;12.63;;
18174;SDS011;9212;50.894;16.714;2022-10-15T05:16:22;34.87;;;12.87;;
18174;SDS011;9212;50.894;16.714;2022-10-15T05:18:51;27.57;;;14.20;;
18174;SDS011;9212;50.894;16.714;2022-10-15T05:21:21;28.40;;;14.23;;
18174;SDS011;9212;50.894;16.714;2022-10-15T05:23:48;28.80;;;14.17;;
18174;SDS011;9212;50.894;16.714;2022-10-15T05:26:18;30.10;;;14.90;;
18174;SDS011;9212;50.894;16.714;2022-10-15T05:28:46;29.87;;;14.97;;
18174;SDS011;9212;50.894;16.714;2022-10-15T05:31:15;30.17;;;14.07;;
18174;SDS011;9212;50.894;16.714;2022-10-15T05:33:43;31.10;;;12.93;;
18174;SDS011;9212;50.894;16.714;2022-10-15T05:36:11;22.77;;;12.57;;
18174;SDS011;9212;50.894;16.714;2022-10-15T05:38:41;24.57;;;12.17;;
18174;SDS011;9212;50.894;16.714;2022-10-15T05:41:08;28.03;;;11.97;;
18174;SDS011;9212;50.894;16.714;2022-10-15T05:43:37;28.60;;;11.87;;
18174;SDS011;9212;50.894;16.714;2022-10-15T05:46:04;22.77;;;11.37;;
18174;SDS011;9212;50.894;16.714;2022-10-15T05:48:31;23.87;;;11.43;;
18174;SDS011;9212;50.894;16.714;2022-10-15T05:50:59;26.20;;;11.40;;
18174;SDS011;9212;50.894;16.714;2022-10-15T05:53:27;28.87;;;11.80;;
18174;SDS011;9212;50.894;16.714;2022-10-15T05:55:55;20.90;;;10.63;;
18174;SDS011;9212;50.894;16.714;2022-10-15T05:58:23;22.40;;;11.63;;
18174;SDS011;9212;50.894;16.714;2022-10-15T06:00:55;21.97;;;11.53;;
18174;SDS011;9212;50.894;16.714;2022-10-15T06:03:24;21.03;;;10.20;;
18174;SDS011;9212;50.894;16.714;2022-10-15T06:05:52;24.50;;;12.20;;
18174;SDS011;9212;50.894;16.714;2022-10-15T06:08:19;25.33;;;12.03;;
18174;SDS011;9212;50.894;16.714;2022-10-15T06:10:47;26.43;;;10.73;;
18174;SDS011;9212;50.894;16.714;2022-10-15T06:13:14;24.40;;;11.40;;
18174;SDS011;9212;50.894;16.714;2022-10-15T06:15:42;22.43;;;11.83;;
18174;SDS011;9212;50.894;16.714;2022-10-15T06:18:12;24.87;;;13.20;;
18174;SDS011;9212;50.894;16.714;2022-10-15T06:20:40;26.73;;;12.73;;
18174;SDS011;9212;50.894;16.714;2022-10-15T06:23:08;32.57;;;13.13;;
18174;SDS011;9212;50.894;16.714;2022-10-15T06:25:35;28.37;;;13.53;;
18174;SDS011;9212;50.894;16.714;2022-10-15T06:28:03;26.63;;;12.67;;
18174;SDS011;9212;50.894;16.714;2022-10-15T06:30:31;24.23;;;11.30;;
18174;SDS011;9212;50.894;16.714;2022-10-15T06:32:58;23.50;;;11.40;;
18174;SDS011;9212;50.894;16.714;2022-10-15T06:35:27;23.77;;;11.97;;
18174;SDS011;9212;50.894;16.714;2022-10-15T06:37:58;24.37;;;11.47;;
18174;SDS011;9212;50.894;16.714;2022-10-15T06:40:26;25.67;;;12.20;;
18174;SDS011;9212;50.894;16.714;2022-10-15T06:42:53;26.93;;;12.40;;
18174;SDS011;9212;50.894;16.714;2022-10-15T06:45:20;23.67;;;12.97;;
18174;SDS011;9212;50.894;16.714;2022-10-15T06:47:47;23.37;;;12.30;;
18174;SDS011;9212;50.894;16.714;2022-10-15T06:50:15;23.20;;;12.07;;
18174;SDS011;9212;50.894;16.714;2022-10-15T06:52:43;26.10;;;12.63;;
18174;SDS011;9212;50.894;16.714;2022-10-15T06:55:10;30.40;;;12.70;;
18174;SDS011;9212;50.894;16.714;2022-10-15T06:57:38;27.37;;;13.27;;
18174;SDS011;9212;50.894;16.714;2022-10-15T07:00:06;25.40;;;12.43;;
18174;SDS011;9212;50.894;16.714;2022-10-15T07:02:33;25.50;;;11.60;;
18174;SDS011;9212;50.894;16.714;2022-10-15T07:05:01;21.87;;;11.43;;
18174;SDS011;9212;50.894;16.714;2022-10-15T07:07:28;23.40;;;11.60;;
18174;SDS011;9212;50.894;16.714;2022-10-15T07:09:57;28.20;;;12.03;;
18174;SDS011;9212;50.894;16.714;2022-10-15T07:12:24;21.67;;;10.40;;
18174;SDS011;9212;50.894;16.714;2022-10-15T07:14:51;24.43;;;10.77;;
18174;SDS011;9212;50.894;16.714;2022-10-15T07:17:18;25.13;;;10.23;;
18174;SDS011;9212;50.894;16.714;2022-10-15T07:19:45;22.07;;;10.47;;
18174;SDS011;9212;50.894;16.714;2022-10-15T07:22:13;19.97;;;9.73;;
18174;SDS011;9212;50.894;16.714;2022-10-15T07:24:40;22.60;;;10.20;;
18174;SDS011;9212;50.894;16.714;2022-10-15T07:27:09;19.97;;;10.07;;
18174;SDS011;9212;50.894;16.714;2022-10-15T07:29:36;18.63;;;9.30;;
18174;SDS011;9212;50.894;16.714;2022-10-15T07:32:03;17.87;;;8.80;;
18174;SDS011;9212;50.894;16.714;2022-10-15T07:34:31;16.87;;;9.50;;
18174;SDS011;9212;50.894;16.714;2022-10-15T07:36:58;17.43;;;9.00;;
18174;SDS011;9212;50.894;16.714;2022-10-15T07:39:25;17.47;;;8.60;;
18174;SDS011;9212;50.894;16.714;2022-10-15T07:41:53;15.20;;;9.40;;
18174;SDS011;9212;50.894;16.714;2022-10-15T07:44:21;16.50;;;8.50;;
18174;SDS011;9212;50.894;16.714;2022-10-15T07:46:48;16.77;;;7.90;;
18174;SDS011;9212;50.894;16.714;2022-10-15T07:49:15;15.80;;;8.33;;
18174;SDS011;9212;50.894;16.714;2022-10-15T07:51:43;17.37;;;8.77;;
18174;SDS011;9212;50.894;16.714;2022-10-15T07:54:10;17.70;;;8.48;;
18174;SDS011;9212;50.894;16.714;2022-10-15T07:56:37;16.97;;;7.77;;
18174;SDS011;9212;50.894;16.714;2022-10-15T07:59:06;14.00;;;7.38;;
18174;SDS011;9212;50.894;16.714;2022-10-15T08:01:35;13.90;;;7.70;;
18174;SDS011;9212;50.894;16.714;2022-10-15T08:04:02;16.10;;;7.70;;
18174;SDS011;9212;50.894;16.714;2022-10-15T08:06:30;13.20;;;7.67;;
18174;SDS011;9212;50.894;16.714;2022-10-15T08:08:57;15.30;;;7.20;;
18174;SDS011;9212;50.894;16.714;2022-10-15T08:11:25;15.05;;;8.07;;
18174;SDS011;9212;50.894;16.714;2022-10-15T08:13:52;16.88;;;7.55;;
18174;SDS011;9212;50.894;16.714;2022-10-15T08:16:20;13.55;;;7.50;;
18174;SDS011;9212;50.894;16.714;2022-10-15T08:18:48;16.23;;;7.45;;
18174;SDS011;9212;50.894;16.714;2022-10-15T08:21:15;16.40;;;8.73;;
18174;SDS011;9212;50.894;16.714;2022-10-15T08:23:43;17.20;;;7.57;;
18174;SDS011;9212;50.894;16.714;2022-10-15T08:26:10;11.77;;;6.90;;
18174;SDS011;9212;50.894;16.714;2022-10-15T08:28:38;11.93;;;6.70;;
18174;SDS011;9212;50.894;16.714;2022-10-15T08:31:05;14.82;;;8.23;;
18174;SDS011;9212;50.894;16.714;2022-10-15T08:33:33;13.48;;;7.43;;
18174;SDS011;9212;50.894;16.714;2022-10-15T08:36:03;13.85;;;7.50;;
18174;SDS011;9212;50.894;16.714;2022-10-15T08:38:30;13.93;;;7.38;;
18174;SDS011;9212;50.894;16.714;2022-10-15T08:40:58;13.82;;;7.55;;
18174;SDS011;9212;50.894;16.714;2022-10-15T08:43:28;11.75;;;7.13;;
18174;SDS011;9212;50.894;16.714;2022-10-15T08:46:00;12.90;;;7.50;;
18174;SDS011;9212;50.894;16.714;2022-10-15T08:48:32;10.48;;;6.95;;
18174;SDS011;9212;50.894;16.714;2022-10-15T08:51:04;11.63;;;7.35;;
18174;SDS011;9212;50.894;16.714;2022-10-15T08:53:36;13.10;;;7.75;;
18174;SDS011;9212;50.894;16.714;2022-10-15T08:56:11;13.93;;;7.35;;
18174;SDS011;9212;50.894;16.714;2022-10-15T08:58:44;11.73;;;7.32;;
18174;SDS011;9212;50.894;16.714;2022-10-15T09:01:17;12.55;;;8.00;;
18174;SDS011;9212;50.894;16.714;2022-10-15T09:03:50;12.30;;;7.60;;
18174;SDS011;9212;50.894;16.714;2022-10-15T09:06:25;14.30;;;8.18;;
18174;SDS011;9212;50.894;16.714;2022-10-15T09:08:58;13.70;;;8.00;;
18174;SDS011;9212;50.894;16.714;2022-10-15T09:11:34;13.23;;;7.60;;
18174;SDS011;9212;50.894;16.714;2022-10-15T09:14:08;8.93;;;5.75;;
18174;SDS011;9212;50.894;16.714;2022-10-15T09:16:39;10.02;;;6.10;;
18174;SDS011;9212;50.894;16.714;2022-10-15T09:19:11;8.07;;;5.40;;
18174;SDS011;9212;50.894;16.714;2022-10-15T09:21:42;7.80;;;5.10;;
18174;SDS011;9212;50.894;16.714;2022-10-15T09:24:12;7.30;;;4.28;;
18174;SDS011;9212;50.894;16.714;2022-10-15T09:26:47;9.25;;;4.68;;
18174;SDS011;9212;50.894;16.714;2022-10-15T09:29:21;4.20;;;3.50;;
18174;SDS011;9212;50.894;16.714;2022-10-15T09:31:54;5.05;;;3.20;;
18174;SDS011;9212;50.894;16.714;2022-10-15T09:34:31;4.70;;;3.00;;
18174;SDS011;9212;50.894;16.714;2022-10-15T09:37:06;5.10;;;3.13;;
18174;SDS011;9212;50.894;16.714;2022-10-15T09:39:43;3.83;;;3.10;;
18174;SDS011;9212;50.894;16.714;2022-10-15T09:42:25;4.43;;;2.60;;
18174;SDS011;9212;50.894;16.714;2022-10-15T09:44:56;4.57;;;2.70;;
18174;SDS011;9212;50.894;16.714;2022-10-15T09:47:28;3.28;;;2.92;;
18174;SDS011;9212;50.894;16.714;2022-10-15T09:49:56;3.25;;;2.95;;
18174;SDS011;9212;50.894;16.714;2022-10-15T09:52:28;3.05;;;2.42;;
18174;SDS011;9212;50.894;16.714;2022-10-15T09:55:14;4.07;;;2.92;;
18174;SDS011;9212;50.894;16.714;2022-10-15T09:57:55;4.18;;;3.25;;
18174;SDS011;9212;50.894;16.714;2022-10-15T10:00:40;5.18;;;3.15;;
18174;SDS011;9212;50.894;16.714;2022-10-15T10:03:18;4.50;;;3.40;;
18174;SDS011;9212;50.894;16.714;2022-10-15T10:05:45;4.68;;;3.40;;
18174;SDS011;9212;50.894;16.714;2022-10-15T10:08:17;5.68;;;3.55;;
18174;SDS011;9212;50.894;16.714;2022-10-15T10:10:52;5.88;;;3.90;;
18174;SDS011;9212;50.894;16.714;2022-10-15T10:13:22;6.85;;;4.18;;
18174;SDS011;9212;50.894;16.714;2022-10-15T10:15:50;4.57;;;3.35;;
18174;SDS011;9212;50.894;16.714;2022-10-15T10:18:20;5.90;;;3.75;;
18174;SDS011;9212;50.894;16.714;2022-10-15T10:20:52;5.57;;;4.10;;
18174;SDS011;9212;50.894;16.714;2022-10-15T10:23:24;4.78;;;3.60;;
18174;SDS011;9212;50.894;16.714;2022-10-15T10:25:59;5.88;;;3.45;;
18174;SDS011;9212;50.894;16.714;2022-10-15T10:28:28;4.22;;;3.28;;
18174;SDS011;9212;50.894;16.714;2022-10-15T10:31:00;5.10;;;3.65;;
18174;SDS011;9212;50.894;16.714;2022-10-15T10:33:30;4.13;;;2.80;;
18174;SDS011;9212;50.894;16.714;2022-10-15T10:36:00;4.47;;;3.33;;
18174;SDS011;9212;50.894;16.714;2022-10-15T10:38:30;4.22;;;3.42;;
18174;SDS011;9212;50.894;16.714;2022-10-15T10:41:00;5.55;;;3.58;;
18174;SDS011;9212;50.894;16.714;2022-10-15T10:43:32;7.00;;;4.53;;
18174;SDS011;9212;50.894;16.714;2022-10-15T10:46:01;6.82;;;4.18;;
18174;SDS011;9212;50.894;16.714;2022-10-15T10:48:37;6.13;;;4.10;;
18174;SDS011;9212;50.894;16.714;2022-10-15T10:51:07;6.53;;;4.50;;
18174;SDS011;9212;50.894;16.714;2022-10-15T10:53:40;7.53;;;5.00;;
18174;SDS011;9212;50.894;16.714;2022-10-15T10:56:13;5.93;;;5.03;;
18174;SDS011;9212;50.894;16.714;2022-10-15T10:58:42;6.35;;;4.65;;
18174;SDS011;9212;50.894;16.714;2022-10-15T11:01:10;7.30;;;5.45;;
18174;SDS011;9212;50.894;16.714;2022-10-15T11:03:38;7.30;;;5.13;;
18174;SDS011;9212;50.894;16.714;2022-10-15T11:06:29;8.05;;;5.35;;
18174;SDS011;9212;50.894;16.714;2022-10-15T11:09:12;7.78;;;5.72;;
18174;SDS011;9212;50.894;16.714;2022-10-15T11:11:50;9.73;;;5.97;;
18174;SDS011;9212;50.894;16.714;2022-10-15T11:14:26;10.18;;;7.03;;
18174;SDS011;9212;50.894;16.714;2022-10-15T11:17:06;10.98;;;6.88;;
18174;SDS011;9212;50.894;16.714;2022-10-15T11:19:40;10.45;;;6.97;;
18174;SDS011;9212;50.894;16.714;2022-10-15T11:22:23;10.38;;;6.57;;
18174;SDS011;9212;50.894;16.714;2022-10-15T11:25:18;12.75;;;8.02;;
18174;SDS011;9212;50.894;16.714;2022-10-15T11:27:52;17.33;;;9.73;;
18174;SDS011;9212;50.894;16.714;2022-10-15T11:30:35;14.80;;;9.70;;
18174;SDS011;9212;50.894;16.714;2022-10-15T11:33:15;18.80;;;10.27;;
18174;SDS011;9212;50.894;16.714;2022-10-15T11:35:53;18.38;;;10.90;;
18174;SDS011;9212;50.894;16.714;2022-10-15T11:38:36;20.52;;;12.05;;
18174;SDS011;9212;50.894;16.714;2022-10-15T11:41:19;16.85;;;10.98;;
18174;SDS011;9212;50.894;16.714;2022-10-15T11:44:02;18.10;;;11.63;;
18174;SDS011;9212;50.894;16.714;2022-10-15T11:46:45;17.70;;;11.15;;
18174;SDS011;9212;50.894;16.714;2022-10-15T11:49:24;20.38;;;12.02;;
18174;SDS011;9212;50.894;16.714;2022-10-15T11:52:02;20.35;;;12.77;;
18174;SDS011;9212;50.894;16.714;2022-10-15T11:54:39;24.38;;;13.75;;
18174;SDS011;9212;50.894;16.714;2022-10-15T11:57:11;21.15;;;12.43;;
18174;SDS011;9212;50.894;16.714;2022-10-15T11:59:42;22.95;;;13.07;;
18174;SDS011;9212;50.894;16.714;2022-10-15T12:02:14;22.67;;;12.95;;
18174;SDS011;9212;50.894;16.714;2022-10-15T12:04:45;20.70;;;13.10;;
18174;SDS011;9212;50.894;16.714;2022-10-15T12:07:17;22.48;;;13.57;;
18174;SDS011;9212;50.894;16.714;2022-10-15T12:09:49;21.42;;;12.93;;
18174;SDS011;9212;50.894;16.714;2022-10-15T12:12:24;24.58;;;13.43;;
18174;SDS011;9212;50.894;16.714;2022-10-15T12:15:01;22.27;;;12.77;;
18174;SDS011;9212;50.894;16.714;2022-10-15T12:17:39;23.60;;;13.20;;
18174;SDS011;9212;50.894;16.714;2022-10-15T12:20:12;21.00;;;12.65;;
18174;SDS011;9212;50.894;16.714;2022-10-15T12:22:52;20.83;;;13.35;;
18174;SDS011;9212;50.894;16.714;2022-10-15T12:25:40;21.17;;;13.10;;
18174;SDS011;9212;50.894;16.714;2022-10-15T12:28:18;25.73;;;13.68;;
18174;SDS011;9212;50.894;16.714;2022-10-15T12:30:54;25.17;;;13.50;;
18174;SDS011;9212;50.894;16.714;2022-10-15T12:33:24;25.77;;;13.40;;
18174;SDS011;9212;50.894;16.714;2022-10-15T12:35:57;36.83;;;16.48;;
18174;SDS011;9212;50.894;16.714;2022-10-15T12:38:27;22.00;;;13.73;;
18174;SDS011;9212;50.894;16.714;2022-10-15T12:40:59;24.58;;;14.15;;
18174;SDS011;9212;50.894;16.714;2022-10-15T12:43:31;23.27;;;13.02;;
18174;SDS011;9212;50.894;16.714;2022-10-15T12:46:01;23.88;;;14.15;;
18174;SDS011;9212;50.894;16.714;2022-10-15T12:48:31;24.90;;;14.35;;
18174;SDS011;9212;50.894;16.714;2022-10-15T12:53:57;22.63;;;13.40;;
18174;SDS011;9212;50.894;16.714;2022-10-15T12:56:36;22.70;;;13.88;;
18174;SDS011;9212;50.894;16.714;2022-10-15T13:01:56;20.45;;;12.50;;
18174;SDS011;9212;50.894;16.714;2022-10-15T13:04:26;20.38;;;12.50;;
18174;SDS011;9212;50.894;16.714;2022-10-15T13:07:02;25.40;;;12.10;;
18174;SDS011;9212;50.894;16.714;2022-10-15T13:09:30;21.65;;;12.30;;
18174;SDS011;9212;50.894;16.714;2022-10-15T13:11:58;22.35;;;12.25;;
18174;SDS011;9212;50.894;16.714;2022-10-15T13:14:33;22.92;;;13.48;;
18174;SDS011;9212;50.894;16.714;2022-10-15T13:17:13;20.60;;;12.32;;
18174;SDS011;9212;50.894;16.714;2022-10-15T13:19:46;25.05;;;13.18;;
18174;SDS011;9212;50.894;16.714;2022-10-15T13:22:24;24.60;;;13.07;;
18174;SDS011;9212;50.894;16.714;2022-10-15T13:24:52;21.63;;;13.65;;
18174;SDS011;9212;50.894;16.714;2022-10-15T13:27:23;20.52;;;12.55;;
18174;SDS011;9212;50.894;16.714;2022-10-15T13:29:55;22.48;;;13.68;;
18174;SDS011;9212;50.894;16.714;2022-10-15T13:32:27;23.92;;;14.02;;
18174;SDS011;9212;50.894;16.714;2022-10-15T13:34:56;24.35;;;13.50;;
18174;SDS011;9212;50.894;16.714;2022-10-15T13:37:26;23.08;;;13.70;;
18174;SDS011;9212;50.894;16.714;2022-10-15T13:39:56;28.15;;;14.07;;
18174;SDS011;9212;50.894;16.714;2022-10-15T13:42:24;22.83;;;13.23;;
18174;SDS011;9212;50.894;16.714;2022-10-15T13:44:57;21.63;;;13.23;;
18174;SDS011;9212;50.894;16.714;2022-10-15T13:47:27;23.60;;;13.65;;
18174;SDS011;9212;50.894;16.714;2022-10-15T13:50:12;22.70;;;13.57;;
18174;SDS011;9212;50.894;16.714;2022-10-15T13:52:43;24.63;;;14.13;;
18174;SDS011;9212;50.894;16.714;2022-10-15T13:55:16;24.08;;;14.55;;
18174;SDS011;9212;50.894;16.714;2022-10-15T13:57:45;25.27;;;14.15;;
18174;SDS011;9212;50.894;16.714;2022-10-15T14:00:21;25.70;;;14.15;;
18174;SDS011;9212;50.894;16.714;2022-10-15T14:03:07;26.65;;;14.52;;
18174;SDS011;9212;50.894;16.714;2022-10-15T14:05:38;28.00;;;15.30;;
18174;SDS011;9212;50.894;16.714;2022-10-15T14:08:11;26.40;;;14.77;;
18174;SDS011;9212;50.894;16.714;2022-10-15T14:10:43;24.85;;;14.07;;
18174;SDS011;9212;50.894;16.714;2022-10-15T14:13:11;26.38;;;14.40;;
18174;SDS011;9212;50.894;16.714;2022-10-15T14:15:43;21.80;;;13.60;;
18174;SDS011;9212;50.894;16.714;2022-10-15T14:18:29;25.83;;;14.52;;
18174;SDS011;9212;50.894;16.714;2022-10-15T14:20:59;27.73;;;16.00;;
18174;SDS011;9212;50.894;16.714;2022-10-15T14:23:27;32.67;;;16.60;;
18174;SDS011;9212;50.894;16.714;2022-10-15T14:25:55;28.92;;;16.27;;
18174;SDS011;9212;50.894;16.714;2022-10-15T14:28:24;29.20;;;15.48;;
18174;SDS011;9212;50.894;16.714;2022-10-15T14:30:53;31.25;;;15.57;;
18174;SDS011;9212;50.894;16.714;2022-10-15T14:36:10;25.35;;;15.52;;
18174;SDS011;9212;50.894;16.714;2022-10-15T14:38:40;31.25;;;17.40;;
18174;SDS011;9212;50.894;16.714;2022-10-15T14:41:24;32.92;;;16.45;;
18174;SDS011;9212;50.894;16.714;2022-10-15T14:44:00;28.80;;;17.15;;
18174;SDS011;9212;50.894;16.714;2022-10-15T14:46:32;30.00;;;18.02;;
18174;SDS011;9212;50.894;16.714;2022-10-15T14:49:03;32.25;;;18.85;;
18174;SDS011;9212;50.894;16.714;2022-10-15T14:51:53;33.30;;;17.30;;
18174;SDS011;9212;50.894;16.714;2022-10-15T14:54:22;30.58;;;17.98;;
18174;SDS011;9212;50.894;16.714;2022-10-15T14:56:55;31.55;;;17.73;;
18174;SDS011;9212;50.894;16.714;2022-10-15T14:59:27;34.58;;;17.00;;
18174;SDS011;9212;50.894;16.714;2022-10-15T15:01:59;29.75;;;17.20;;